createdAt,value
2016-08-10T00:00:39.634Z,65.64
2016-08-10T00:01:38.784Z,65.45
2016-08-10T00:02:38.782Z,65.26
2016-08-10T00:03:38.778Z,65.64
2016-08-10T00:04:38.775Z,65.68
2016-08-10T00:05:40.050Z,65.93
2016-08-10T00:06:38.796Z,65.36
2016-08-10T00:07:38.763Z,65.45
2016-08-10T00:08:38.776Z,65.84
2016-08-10T00:09:38.987Z,65.74
2016-08-10T00:10:38.750Z,65.74
2016-08-10T00:11:38.826Z,65.84
2016-08-10T00:12:38.745Z,65.64
2016-08-10T00:13:38.746Z,65.93
2016-08-10T00:14:38.740Z,65.93
2016-08-10T00:15:38.731Z,65.93
2016-08-10T00:16:38.731Z,65.84
2016-08-10T00:17:38.726Z,65.84
2016-08-10T00:18:38.727Z,65.93
2016-08-10T00:20:38.710Z,65.84
2016-08-10T00:21:38.713Z,65.74
2016-08-10T00:22:38.706Z,65.64
2016-08-10T00:23:38.705Z,65.87
2016-08-10T00:24:38.703Z,65.68
2016-08-10T00:25:38.696Z,66.06
2016-08-10T00:26:38.689Z,65.64
2016-08-10T00:27:38.696Z,65.77
2016-08-10T00:28:38.681Z,66.06
2016-08-10T00:29:38.685Z,65.87
2016-08-10T00:30:38.677Z,65.68
2016-08-10T00:31:38.676Z,65.68
2016-08-10T00:32:38.668Z,65.55
2016-08-10T00:33:38.664Z,65.58
2016-08-10T00:34:38.661Z,65.58
2016-08-10T00:35:38.673Z,65.68
2016-08-10T00:36:38.655Z,65.39
2016-08-10T00:38:39.344Z,65.48
2016-08-10T00:39:38.645Z,65.77
2016-08-10T00:40:38.646Z,65.87
2016-08-10T00:41:38.647Z,65.87
2016-08-10T00:42:40.153Z,65.48
2016-08-10T00:44:39.029Z,65.77
2016-08-10T00:45:38.622Z,65.68
2016-08-10T00:47:40.134Z,65.68
2016-08-10T00:48:38.609Z,65.87
2016-08-10T00:49:38.613Z,65.3
2016-08-10T00:50:38.601Z,65.39
2016-08-10T00:51:38.597Z,65.3
2016-08-10T00:55:39.287Z,65.68
2016-08-10T00:56:38.584Z,65.39
2016-08-10T00:57:39.331Z,65.3
2016-08-10T00:58:38.818Z,65.3
2016-08-10T00:59:38.567Z,64.91
2016-08-10T01:00:38.569Z,65.2
2016-08-10T01:01:38.564Z,65.01
2016-08-10T01:02:38.563Z,64.82
2016-08-10T01:03:38.909Z,65.01
2016-08-10T01:04:38.546Z,65.2
2016-08-10T01:06:39.111Z,65.26
2016-08-10T01:08:38.537Z,64.88
2016-08-10T01:09:38.528Z,64.78
2016-08-10T01:10:39.219Z,64.88
2016-08-10T01:11:39.330Z,64.82
2016-08-10T01:12:38.523Z,64.59
2016-08-10T01:13:38.514Z,64.31
2016-08-10T01:15:40.053Z,64.4
2016-08-10T01:16:39.269Z,64.59
2016-08-10T01:17:38.498Z,64.4
2016-08-10T01:18:38.501Z,64.59
2016-08-10T01:19:38.492Z,64.5
2016-08-10T01:20:38.485Z,64.31
2016-08-10T01:21:38.817Z,64.5
2016-08-10T01:23:38.479Z,64.5
2016-08-10T01:24:38.478Z,64.4
2016-08-10T01:25:38.470Z,64.5
2016-08-10T01:26:39.200Z,64.78
2016-08-10T01:27:38.466Z,64.59
2016-08-10T01:28:38.463Z,64.59
2016-08-10T01:29:38.597Z,64.69
2016-08-10T01:30:38.451Z,64.88
2016-08-10T01:31:38.459Z,65.07
2016-08-10T01:32:38.448Z,65.07
2016-08-10T01:33:38.441Z,65.07
2016-08-10T01:34:38.443Z,64.98
2016-08-10T01:35:38.427Z,64.98
2016-08-10T01:36:38.432Z,64.98
2016-08-10T01:37:38.428Z,64.88
2016-08-10T01:38:38.420Z,64.88
2016-08-10T01:39:38.421Z,64.98
2016-08-10T01:40:38.417Z,64.98
2016-08-10T01:41:38.408Z,64.98
2016-08-10T01:42:38.400Z,65.17
2016-08-10T01:43:38.408Z,65.07
2016-08-10T01:44:38.400Z,65.55
2016-08-10T01:45:39.091Z,65.45
2016-08-10T01:46:38.387Z,65.36
2016-08-10T01:47:38.389Z,65.55
2016-08-10T01:48:38.379Z,65.55
2016-08-10T01:49:38.385Z,65.55
2016-08-10T01:50:38.375Z,65.45
2016-08-10T01:51:38.386Z,65.45
2016-08-10T01:52:38.368Z,65.26
2016-08-10T01:53:38.361Z,65.55
2016-08-10T01:54:38.358Z,65.84
2016-08-10T01:55:38.355Z,65.64
2016-08-10T01:56:38.351Z,65.74
2016-08-10T01:57:38.349Z,65.84
2016-08-10T01:58:38.348Z,65.64
2016-08-10T01:59:38.336Z,65.64
2016-08-10T02:00:39.035Z,65.55
2016-08-10T02:01:38.330Z,65.64
2016-08-10T02:02:38.342Z,65.64
2016-08-10T02:03:38.324Z,65.55
2016-08-10T02:04:38.316Z,65.74
2016-08-10T02:05:38.312Z,65.64
2016-08-10T02:06:38.310Z,65.64
2016-08-10T02:07:38.310Z,65.64
2016-08-10T02:08:38.304Z,65.64
2016-08-10T02:09:38.303Z,65.74
2016-08-10T02:10:38.293Z,65.93
2016-08-10T02:11:38.292Z,65.93
2016-08-10T02:13:38.682Z,65.93
2016-08-10T02:14:38.283Z,65.64
2016-08-10T02:15:38.423Z,65.84
2016-08-10T02:16:38.274Z,65.93
2016-08-10T02:17:38.270Z,65.8
2016-08-10T02:18:38.268Z,66.13
2016-08-10T02:19:38.258Z,66.6
2016-08-10T02:20:38.253Z,66.7
2016-08-10T02:21:53.167Z,66.56
2016-08-10T02:22:38.600Z,66.47
2016-08-10T02:23:38.242Z,66.66
2016-08-10T02:24:38.238Z,66.56
2016-08-10T02:25:38.237Z,66.56
2016-08-10T02:26:38.232Z,66.79
2016-08-10T02:27:38.230Z,66.56
2016-08-10T02:28:38.223Z,66.31
2016-08-10T02:29:38.218Z,66.47
2016-08-10T02:30:38.213Z,66.66
2016-08-10T02:31:38.209Z,67.05
2016-08-10T02:32:38.207Z,67.14
2016-08-10T02:33:39.007Z,67.05
2016-08-10T02:34:38.940Z,67.14
2016-08-10T02:35:38.675Z,67.05
2016-08-10T02:36:38.890Z,66.95
2016-08-10T02:37:38.835Z,66.95
2016-08-10T02:38:38.387Z,67.14
2016-08-10T02:39:38.180Z,67.14
2016-08-10T02:40:38.173Z,67.43
2016-08-10T02:41:38.173Z,67.81
2016-08-10T02:42:38.164Z,67.91
2016-08-10T02:43:38.166Z,67.52
2016-08-10T02:44:39.596Z,67.52
2016-08-10T02:45:38.284Z,67.81
2016-08-10T02:46:38.670Z,67.91
2016-08-10T02:47:38.513Z,67.71
2016-08-10T02:48:38.142Z,67.81
2016-08-10T02:49:38.138Z,67.81
2016-08-10T02:50:38.132Z,67.62
2016-08-10T02:51:38.127Z,67.91
2016-08-10T02:52:38.125Z,67.81
2016-08-10T02:53:38.122Z,68.19
2016-08-10T02:54:38.816Z,67.91
2016-08-10T02:55:38.115Z,67.71
2016-08-10T02:56:38.115Z,67.71
2016-08-10T02:57:38.106Z,67.91
2016-08-10T02:58:38.099Z,67.62
2016-08-10T02:59:38.096Z,68
2016-08-10T03:00:38.094Z,68.29
2016-08-10T03:01:38.087Z,68.19
2016-08-10T03:02:38.088Z,68.1
2016-08-10T03:03:38.083Z,68.86
2016-08-10T03:04:38.080Z,68.48
2016-08-10T03:05:38.070Z,68.48
2016-08-10T03:06:38.070Z,68.67
2016-08-10T03:07:38.068Z,68.38
2016-08-10T03:08:38.065Z,68.19
2016-08-10T03:09:38.058Z,68.76
2016-08-10T03:10:38.057Z,68.96
2016-08-10T03:11:38.048Z,68.57
2016-08-10T03:12:38.041Z,68.57
2016-08-10T03:13:38.042Z,68.86
2016-08-10T03:14:38.032Z,69.05
2016-08-10T03:15:38.035Z,68.96
2016-08-10T03:16:38.023Z,68.76
2016-08-10T03:17:38.027Z,68.82
2016-08-10T03:18:38.017Z,68.92
2016-08-10T03:19:38.019Z,69.11
2016-08-10T03:20:38.009Z,69.21
2016-08-10T03:21:38.005Z,69.24
2016-08-10T03:22:38.003Z,68.63
2016-08-10T03:23:37.993Z,69.34
2016-08-10T03:24:37.995Z,69.11
2016-08-10T03:25:37.983Z,69.21
2016-08-10T03:26:37.984Z,69.59
2016-08-10T03:27:37.982Z,69.72
2016-08-10T03:28:37.980Z,69.78
2016-08-10T03:29:37.968Z,69.53
2016-08-10T03:30:38.473Z,69.49
2016-08-10T03:31:39.011Z,69.68
2016-08-10T03:32:37.961Z,69.59
2016-08-10T03:33:37.957Z,69.4
2016-08-10T03:34:37.947Z,69.68
2016-08-10T03:35:37.945Z,70.26
2016-08-10T03:36:38.187Z,69.87
2016-08-10T03:37:37.941Z,70.16
2016-08-10T03:38:37.939Z,70.07
2016-08-10T03:39:52.842Z,70.16
2016-08-10T03:40:52.840Z,70.36
2016-08-10T03:41:37.916Z,70.26
2016-08-10T03:42:37.916Z,70.26
2016-08-10T03:43:37.908Z,70.36
2016-08-10T03:44:37.917Z,70.36
2016-08-10T03:45:37.898Z,70.83
2016-08-10T03:46:37.894Z,70.83
2016-08-10T03:47:37.942Z,70.83
2016-08-10T03:48:37.886Z,70.64
2016-08-10T03:49:37.885Z,71.12
2016-08-10T03:50:37.884Z,70.54
2016-08-10T03:51:37.930Z,70.54
2016-08-10T03:52:38.642Z,71.31
2016-08-10T03:53:38.952Z,70.83
2016-08-10T03:54:37.866Z,71.31
2016-08-10T03:55:38.288Z,71.12
2016-08-10T03:56:37.861Z,71.12
2016-08-10T03:57:37.851Z,71.31
2016-08-10T03:58:37.840Z,71.31
2016-08-10T03:59:37.846Z,71.12
2016-08-10T04:00:39.649Z,71.21
2016-08-10T04:01:37.831Z,71.21
2016-08-10T04:02:37.957Z,71.41
2016-08-10T04:03:37.818Z,71.25
2016-08-10T04:04:38.106Z,71.21
2016-08-10T04:05:38.027Z,71.21
2016-08-10T04:06:37.822Z,71.21
2016-08-10T04:07:37.809Z,71.12
2016-08-10T04:08:37.817Z,71.15
2016-08-10T04:09:37.793Z,71.31
2016-08-10T04:10:37.798Z,71.02
2016-08-10T04:11:37.787Z,70.77
2016-08-10T04:12:37.782Z,71.12
2016-08-10T04:13:37.784Z,70.96
2016-08-10T04:14:37.781Z,71.44
2016-08-10T04:15:37.771Z,71.44
2016-08-10T04:16:37.764Z,70.58
2016-08-10T04:17:37.762Z,70.77
2016-08-10T04:18:37.757Z,70.58
2016-08-10T04:19:37.755Z,70.77
2016-08-10T04:20:37.749Z,70.96
2016-08-10T04:21:37.742Z,70.77
2016-08-10T04:23:37.741Z,70.87
2016-08-10T04:24:39.144Z,70.77
2016-08-10T04:26:37.720Z,70.87
2016-08-10T04:27:39.441Z,70.87
2016-08-10T04:28:37.714Z,70.87
2016-08-10T04:29:37.708Z,70.87
2016-08-10T04:30:37.705Z,70.48
2016-08-10T04:31:37.705Z,70.48
2016-08-10T04:32:37.697Z,70.1
2016-08-10T04:33:37.692Z,70.1
2016-08-10T04:34:37.693Z,70.29
2016-08-10T04:35:37.687Z,70.2
2016-08-10T04:36:37.681Z,70.01
2016-08-10T04:37:37.682Z,70.48
2016-08-10T04:38:37.677Z,70.39
2016-08-10T04:39:37.668Z,70.29
2016-08-10T04:40:38.359Z,70.48
2016-08-10T04:41:37.663Z,70.39
2016-08-10T04:42:37.661Z,70.39
2016-08-10T04:43:37.655Z,70.2
2016-08-10T04:44:37.647Z,70.29
2016-08-10T04:45:37.642Z,70.29
2016-08-10T04:46:37.647Z,69.91
2016-08-10T04:47:37.635Z,70.01
2016-08-10T04:48:37.782Z,70.1
2016-08-10T04:49:37.829Z,69.85
2016-08-10T04:50:38.323Z,69.27
2016-08-10T04:51:37.733Z,69.76
2016-08-10T04:52:37.622Z,69.76
2016-08-10T04:54:37.609Z,69.47
2016-08-10T04:55:37.754Z,68.99
2016-08-10T04:56:37.600Z,69.02
2016-08-10T04:57:37.800Z,68.51
2016-08-10T04:58:37.598Z,68.93
2016-08-10T04:59:37.595Z,68.45
2016-08-10T05:00:37.588Z,68.64
2016-08-10T05:01:37.593Z,68.84
2016-08-10T05:02:37.578Z,68.07
2016-08-10T05:03:37.575Z,67.97
2016-08-10T05:04:37.578Z,68.07
2016-08-10T05:05:37.566Z,68.26
2016-08-10T05:06:37.572Z,68.26
2016-08-10T05:07:37.566Z,68.39
2016-08-10T05:09:37.552Z,67.14
2016-08-10T05:10:38.418Z,67.72
2016-08-10T05:11:37.550Z,67.43
2016-08-10T05:12:37.543Z,67.05
2016-08-10T05:13:37.556Z,66.96
2016-08-10T05:14:38.230Z,67.24
2016-08-10T05:15:37.859Z,67.14
2016-08-10T05:16:37.534Z,66.67
2016-08-10T05:17:37.531Z,66.76
2016-08-10T05:18:38.954Z,66.57
2016-08-10T05:19:37.528Z,66.19
2016-08-10T05:20:38.555Z,66
2016-08-10T05:21:38.497Z,65.74
2016-08-10T05:22:37.518Z,65.74
2016-08-10T05:23:38.227Z,65.74
2016-08-10T05:24:37.504Z,65.65
2016-08-10T05:25:37.653Z,65.45
2016-08-10T05:26:37.498Z,65.74
2016-08-10T05:27:37.497Z,65.36
2016-08-10T05:28:37.496Z,64.79
2016-08-10T05:29:37.493Z,65.08
2016-08-10T05:30:37.487Z,64.98
2016-08-10T05:31:37.500Z,65.08
2016-08-10T05:32:37.489Z,65.17
2016-08-10T05:33:37.485Z,64.5
2016-08-10T05:34:38.179Z,64.12
2016-08-10T05:35:37.472Z,64.4
2016-08-10T05:36:37.470Z,64.5
2016-08-10T05:37:37.473Z,64.22
2016-08-10T05:38:37.470Z,64.05
2016-08-10T05:39:37.460Z,63.76
2016-08-10T05:40:37.470Z,63.76
2016-08-10T05:41:37.461Z,64.05
2016-08-10T05:42:37.452Z,63.48
2016-08-10T05:43:37.454Z,63.86
2016-08-10T05:44:37.455Z,63.48
2016-08-10T05:45:37.445Z,63.67
2016-08-10T05:46:37.442Z,63.29
2016-08-10T05:47:37.442Z,63.1
2016-08-10T05:48:37.437Z,63.19
2016-08-10T05:49:37.434Z,63.19
2016-08-10T05:50:37.435Z,63
2016-08-10T05:51:37.435Z,63
2016-08-10T05:52:37.430Z,62.9
2016-08-10T05:53:37.422Z,62.71
2016-08-10T05:54:37.425Z,62.52
2016-08-10T05:55:37.429Z,63.1
2016-08-10T05:56:37.416Z,62.84
2016-08-10T05:57:37.414Z,62.55
2016-08-10T05:58:37.413Z,62.46
2016-08-10T05:59:38.122Z,62.74
2016-08-10T06:00:37.413Z,62.93
2016-08-10T06:01:37.409Z,62.55
2016-08-10T06:02:37.409Z,62.17
2016-08-10T06:03:37.400Z,62.07
2016-08-10T06:04:37.396Z,62.17
2016-08-10T06:05:37.401Z,62.17
2016-08-10T06:06:52.312Z,62.07
2016-08-10T06:08:39.894Z,61.88
2016-08-10T06:09:37.393Z,61.98
2016-08-10T06:10:37.387Z,61.88
2016-08-10T06:11:37.384Z,61.69
2016-08-10T06:12:37.380Z,61.69
2016-08-10T06:13:37.383Z,61.69
2016-08-10T06:14:37.377Z,61.88
2016-08-10T06:15:37.374Z,61.63
2016-08-10T06:18:37.365Z,61.63
2016-08-10T06:19:37.365Z,61.15
2016-08-10T06:20:37.963Z,60.76
2016-08-10T06:21:37.359Z,61.24
2016-08-10T06:22:37.359Z,60.47
2016-08-10T06:23:37.366Z,60.03
2016-08-10T06:24:37.358Z,60.12
2016-08-10T06:25:37.356Z,59.83
2016-08-10T06:26:37.356Z,59.93
2016-08-10T06:27:37.353Z,59.74
2016-08-10T06:28:38.131Z,60.12
2016-08-10T06:29:37.345Z,59.16
2016-08-10T06:30:37.347Z,59.36
2016-08-10T06:31:37.347Z,59.06
2016-08-10T06:32:37.863Z,58.87
2016-08-10T06:33:37.342Z,59.29
2016-08-10T06:34:37.338Z,58.71
2016-08-10T06:35:37.335Z,59.09
2016-08-10T06:36:38.124Z,58.81
2016-08-10T06:37:37.340Z,58.17
2016-08-10T06:38:37.334Z,57.88
2016-08-10T06:39:37.340Z,57.3
2016-08-10T06:40:37.336Z,57.04
2016-08-10T06:41:37.332Z,56.56
2016-08-10T06:42:37.347Z,56.95
2016-08-10T06:43:37.338Z,55.91
2016-08-10T06:44:37.333Z,55.91
2016-08-10T06:45:37.336Z,55.73
2016-08-10T06:46:37.331Z,55.56
2016-08-10T06:47:37.337Z,54.53
2016-08-10T06:48:37.342Z,54.27
2016-08-10T06:49:37.339Z,53.02
2016-08-10T06:50:37.344Z,52.47
2016-08-10T06:52:37.345Z,51.92
2016-08-10T06:53:37.344Z,51.72
2016-08-10T06:54:37.344Z,51.05
2016-08-10T06:55:37.350Z,50.95
2016-08-10T06:56:37.349Z,50.66
2016-08-10T06:57:37.365Z,50.27
2016-08-10T06:58:37.360Z,50.27
2016-08-10T06:59:37.356Z,50.11
2016-08-10T07:00:37.360Z,49.91
2016-08-10T07:01:37.362Z,49.43
2016-08-10T07:02:37.366Z,49.24
2016-08-10T07:03:37.371Z,48.69
2016-08-10T07:04:37.371Z,48.4
2016-08-10T07:05:37.378Z,48.11
2016-08-10T07:06:37.389Z,47.55
2016-08-10T07:07:37.382Z,47.65
2016-08-10T07:08:37.737Z,47.27
2016-08-10T07:09:38.093Z,46.69
2016-08-10T07:10:37.392Z,46.3
2016-08-10T07:11:37.394Z,46.51
2016-08-10T07:12:37.402Z,46.42
2016-08-10T07:13:37.401Z,46.03
2016-08-10T07:14:37.409Z,46.13
2016-08-10T07:15:37.413Z,45.75
2016-08-10T07:16:37.419Z,45.48
2016-08-10T07:17:37.417Z,45.57
2016-08-10T07:18:37.428Z,45.07
2016-08-10T07:19:37.430Z,45
2016-08-10T07:20:37.434Z,44.87
2016-08-10T07:21:37.433Z,44.7
2016-08-10T07:22:37.445Z,44.51
2016-08-10T07:23:37.447Z,44.22
2016-08-10T07:24:37.650Z,43.93
2016-08-10T07:25:38.665Z,44.03
2016-08-10T07:26:37.658Z,43.74
2016-08-10T07:27:38.369Z,43.74
2016-08-10T07:28:37.988Z,43.28
2016-08-10T07:29:37.473Z,42.79
2016-08-10T07:30:37.482Z,42.91
2016-08-10T07:31:37.492Z,42.24
2016-08-10T07:32:37.492Z,41.94
2016-08-10T07:33:37.494Z,41.85
2016-08-10T07:34:38.158Z,41.87
2016-08-10T07:35:37.558Z,41.48
2016-08-10T07:37:37.525Z,40.84
2016-08-10T07:38:52.451Z,40.56
2016-08-10T07:39:37.537Z,40.58
2016-08-10T07:40:37.792Z,40.31
2016-08-10T07:41:37.554Z,39.74
2016-08-10T07:42:37.573Z,39.28
2016-08-10T07:43:37.567Z,38.91
2016-08-10T07:44:37.579Z,38.34
2016-08-10T07:45:39.198Z,37.7
2016-08-10T07:46:38.296Z,36.83
2016-08-10T07:47:37.653Z,35.1
2016-08-10T07:48:38.843Z,34.72
2016-08-10T07:49:37.628Z,35.02
2016-08-10T07:50:37.644Z,34.55
2016-08-10T07:51:37.648Z,33.86
2016-08-10T07:52:37.662Z,33.67
2016-08-10T07:53:37.674Z,33.59
2016-08-10T07:54:37.681Z,33.59
2016-08-10T07:55:37.698Z,33.01
2016-08-10T07:56:37.701Z,32.73
2016-08-10T07:57:38.779Z,31.85
2016-08-10T07:58:37.724Z,31.66
2016-08-10T07:59:37.739Z,31.16
2016-08-10T08:00:38.099Z,30.96
2016-08-10T08:01:37.761Z,30.94
2016-08-10T08:02:37.773Z,31.03
2016-08-10T08:03:37.783Z,31.01
2016-08-10T08:04:37.789Z,31
2016-08-10T08:05:38.489Z,30.88
2016-08-10T08:06:38.006Z,31.65
2016-08-10T08:07:37.820Z,31.65
2016-08-10T08:08:37.828Z,31.35
2016-08-10T08:09:37.839Z,31.53
2016-08-10T08:10:37.860Z,31.62
2016-08-10T08:11:37.857Z,32.18
2016-08-10T08:12:37.866Z,32.36
2016-08-10T08:13:37.872Z,31.87
2016-08-10T08:14:37.877Z,32.06
2016-08-10T08:15:37.889Z,32.73
2016-08-10T08:16:37.900Z,33.31
2016-08-10T08:17:37.908Z,33.31
2016-08-10T08:18:37.919Z,33.52
2016-08-10T08:19:38.622Z,33.33
2016-08-10T08:20:38.622Z,32.57
2016-08-10T08:21:37.947Z,32.29
2016-08-10T08:22:37.949Z,31.92
2016-08-10T08:23:37.955Z,31.82
2016-08-10T08:24:37.970Z,31.34
2016-08-10T08:25:37.975Z,31.53
2016-08-10T08:26:37.987Z,31.13
2016-08-10T08:27:37.996Z,30.84
2016-08-10T08:28:38.006Z,30.92
2016-08-10T08:29:38.015Z,31.12
2016-08-10T08:30:38.018Z,30.81
2016-08-10T08:31:38.026Z,30.62
2016-08-10T08:32:38.042Z,30.79
2016-08-10T08:33:38.049Z,30.98
2016-08-10T08:34:38.058Z,31.46
2016-08-10T08:35:38.063Z,31.26
2016-08-10T08:36:38.066Z,32.23
2016-08-10T08:37:38.075Z,32.31
2016-08-10T08:38:38.085Z,32.6
2016-08-10T08:39:38.102Z,32.6
2016-08-10T08:40:38.104Z,32.41
2016-08-10T08:41:38.109Z,32.52
2016-08-10T08:42:38.118Z,32.42
2016-08-10T08:45:38.135Z,32.12
2016-08-10T08:46:38.334Z,32.12
2016-08-10T08:47:38.201Z,32.12
2016-08-10T08:48:38.148Z,32.21
2016-08-10T08:49:38.158Z,32.39
2016-08-10T08:50:38.160Z,32.39
2016-08-10T08:51:38.176Z,32.39
2016-08-10T08:52:38.526Z,32.87
2016-08-10T08:53:38.684Z,32.78
2016-08-10T08:54:38.188Z,32.96
2016-08-10T08:56:38.200Z,33.42
2016-08-10T08:57:38.308Z,33.81
2016-08-10T08:58:38.212Z,33.62
2016-08-10T08:59:38.219Z,33.81
2016-08-10T09:00:38.218Z,33.91
2016-08-10T09:01:38.233Z,34.58
2016-08-10T09:02:38.227Z,34.48
2016-08-10T09:03:38.235Z,34.58
2016-08-10T09:04:38.706Z,34.68
2016-08-10T09:05:38.761Z,34.48
2016-08-10T09:06:38.537Z,34.5
2016-08-10T09:07:38.917Z,34.6
2016-08-10T09:08:39.163Z,34.02
2016-08-10T09:09:38.549Z,34.21
2016-08-10T09:10:38.272Z,34.5
2016-08-10T09:11:38.279Z,34.21
2016-08-10T09:12:38.297Z,34.21
2016-08-10T09:13:38.292Z,34.5
2016-08-10T09:14:38.350Z,34.7
2016-08-10T09:15:38.565Z,34.12
2016-08-10T09:16:39.353Z,34.5
2016-08-10T09:17:38.310Z,34.41
2016-08-10T09:18:38.317Z,34.5
2016-08-10T09:19:38.444Z,34.21
2016-08-10T09:20:38.325Z,34.58
2016-08-10T09:21:38.326Z,34.58
2016-08-10T09:22:38.335Z,34.68
2016-08-10T09:23:38.341Z,34
2016-08-10T09:25:38.350Z,34.76
2016-08-10T09:26:38.352Z,34.45
2016-08-10T09:27:38.357Z,34.94
2016-08-10T09:28:38.368Z,35.61
2016-08-10T09:29:38.369Z,35.78
2016-08-10T09:30:38.371Z,35.71
2016-08-10T09:31:38.374Z,35.9
2016-08-10T09:32:38.376Z,35.61
2016-08-10T09:33:38.384Z,34.94
2016-08-10T09:34:38.384Z,34.63
2016-08-10T09:35:38.391Z,35.3
2016-08-10T09:36:38.397Z,35.3
2016-08-10T09:37:38.402Z,35.22
2016-08-10T09:38:38.401Z,35.32
2016-08-10T09:40:38.411Z,34.95
2016-08-10T09:41:38.414Z,34.56
2016-08-10T09:42:38.417Z,34.66
2016-08-10T09:43:38.419Z,34.56
2016-08-10T09:44:38.431Z,34.47
2016-08-10T09:45:38.430Z,34.56
2016-08-10T09:46:38.436Z,34.08
2016-08-10T09:47:38.437Z,34.18
2016-08-10T09:48:38.444Z,34.18
2016-08-10T09:49:38.447Z,34.36
2016-08-10T09:50:38.452Z,34.84
2016-08-10T09:51:38.462Z,34.55
2016-08-10T09:52:38.460Z,34.74
2016-08-10T09:53:38.464Z,34.86
2016-08-10T09:54:38.469Z,34.47
2016-08-10T09:55:38.471Z,34.38
2016-08-10T09:56:38.478Z,34.56
2016-08-10T09:57:38.484Z,33.98
2016-08-10T09:58:38.490Z,33.02
2016-08-10T09:59:38.493Z,33.31
2016-08-10T10:00:38.489Z,33.7
2016-08-10T10:01:39.564Z,33.89
2016-08-10T10:03:39.404Z,33.23
2016-08-10T10:04:38.512Z,33.33
2016-08-10T10:05:39.409Z,32.84
2016-08-10T10:06:38.728Z,32.67
2016-08-10T10:07:38.522Z,32.76
2016-08-10T10:08:38.542Z,31.89
2016-08-10T10:09:38.535Z,31.91
2016-08-10T10:10:38.938Z,32.01
2016-08-10T10:11:39.593Z,31.81
2016-08-10T10:12:38.703Z,31.52
2016-08-10T10:13:38.558Z,31.33
2016-08-10T10:14:38.560Z,31.33
2016-08-10T10:15:38.565Z,31.43
2016-08-10T10:16:38.571Z,31.33
2016-08-10T10:17:38.576Z,31.15
2016-08-10T10:18:38.579Z,31.54
2016-08-10T10:19:38.586Z,31.36
2016-08-10T10:20:38.591Z,31.26
2016-08-10T10:21:38.604Z,31.36
2016-08-10T10:22:39.040Z,31.16
2016-08-10T10:23:39.947Z,31.47
2016-08-10T10:24:38.613Z,31.09
2016-08-10T10:25:39.399Z,30.79
2016-08-10T10:26:38.623Z,30.89
2016-08-10T10:27:38.627Z,30.99
2016-08-10T10:28:38.903Z,30.89
2016-08-10T10:29:38.647Z,30.31
2016-08-10T10:30:38.648Z,30.23
2016-08-10T10:31:38.656Z,30.13
2016-08-10T10:32:39.293Z,30.23
2016-08-10T10:33:40.197Z,30.13
2016-08-10T10:34:39.473Z,30.13
2016-08-10T10:35:38.677Z,30.04
2016-08-10T10:36:38.684Z,30.04
2016-08-10T10:37:38.684Z,30.23
2016-08-10T10:38:38.854Z,30.32
2016-08-10T10:39:38.700Z,29.84
2016-08-10T10:40:38.709Z,29.74
2016-08-10T10:41:38.713Z,29.55
2016-08-10T10:42:38.717Z,29.57
2016-08-10T10:43:38.726Z,29.46
2016-08-10T10:44:38.732Z,28.87
2016-08-10T10:45:38.731Z,29.36
2016-08-10T10:46:38.739Z,29.44
2016-08-10T10:47:38.751Z,29.34
2016-08-10T10:48:38.753Z,29.53
2016-08-10T10:49:38.763Z,29.34
2016-08-10T10:50:38.765Z,29.33
2016-08-10T10:51:38.765Z,29.52
2016-08-10T10:52:38.777Z,30.29
2016-08-10T10:53:38.784Z,29.91
2016-08-10T10:54:38.783Z,30.18
2016-08-10T10:55:38.796Z,30.18
2016-08-10T10:56:38.796Z,30.18
2016-08-10T10:57:38.808Z,30.38
2016-08-10T10:58:38.810Z,30.29
2016-08-10T10:59:38.818Z,29.91
2016-08-10T11:00:38.818Z,29.91
2016-08-10T11:01:38.824Z,30.18
2016-08-10T11:02:38.832Z,30.28
2016-08-10T11:03:38.843Z,30.47
2016-08-10T11:04:38.841Z,29.7
2016-08-10T11:05:38.841Z,29.99
2016-08-10T11:06:38.862Z,30.38
2016-08-10T11:07:38.855Z,30.28
2016-08-10T11:08:38.866Z,30.07
2016-08-10T11:09:38.868Z,30.46
2016-08-10T11:10:38.874Z,30.25
2016-08-10T11:11:38.878Z,30.35
2016-08-10T11:12:38.879Z,30.73
2016-08-10T11:13:38.885Z,30.62
2016-08-10T11:14:38.888Z,30.91
2016-08-10T11:15:38.895Z,30.8
2016-08-10T11:16:38.900Z,30.99
2016-08-10T11:17:38.898Z,31.38
2016-08-10T11:18:38.917Z,31.18
2016-08-10T11:19:39.713Z,31.96
2016-08-10T11:20:38.914Z,32.06
2016-08-10T11:21:38.922Z,32.15
2016-08-10T11:22:38.922Z,32.14
2016-08-10T11:23:39.527Z,32.52
2016-08-10T11:24:38.927Z,32.43
2016-08-10T11:25:39.282Z,32.52
2016-08-10T11:26:38.933Z,32.6
2016-08-10T11:27:38.986Z,32.79
2016-08-10T11:28:39.287Z,33.18
2016-08-10T11:29:39.741Z,33.26
2016-08-10T11:30:38.945Z,33.36
2016-08-10T11:31:38.949Z,33.07
2016-08-10T11:32:38.952Z,33.26
2016-08-10T11:33:38.957Z,33.94
2016-08-10T11:34:38.959Z,33.66
2016-08-10T11:35:39.668Z,33.76
2016-08-10T11:36:38.961Z,33.66
2016-08-10T11:37:38.968Z,32.99
2016-08-10T11:38:38.975Z,33.86
2016-08-10T11:39:38.971Z,33.95
2016-08-10T11:40:39.042Z,33.76
2016-08-10T11:41:40.713Z,33.76
2016-08-10T11:42:38.981Z,33.68
2016-08-10T11:43:39.005Z,33.58
2016-08-10T11:44:40.582Z,33.2
2016-08-10T11:45:38.990Z,33.2
2016-08-10T11:46:38.996Z,33.02
2016-08-10T11:47:38.996Z,33.12
2016-08-10T11:48:39.009Z,33.02
2016-08-10T11:49:39.007Z,32.73
2016-08-10T11:50:39.828Z,32.65
2016-08-10T11:51:39.011Z,32.46
2016-08-10T11:52:39.011Z,32.36
2016-08-10T11:53:39.018Z,32.46
2016-08-10T11:54:39.022Z,32.17
2016-08-10T11:55:39.022Z,32.36
2016-08-10T11:56:39.029Z,32.18
2016-08-10T11:57:39.030Z,32.2
2016-08-10T11:58:39.040Z,31.81
2016-08-10T11:59:39.046Z,31.44
2016-08-10T12:00:39.050Z,31.54
2016-08-10T12:01:39.050Z,30.96
2016-08-10T12:02:39.052Z,30.39
2016-08-10T12:03:39.065Z,30.57
2016-08-10T12:04:39.073Z,30.96
2016-08-10T12:05:39.069Z,30.58
2016-08-10T12:06:39.076Z,30.39
2016-08-10T12:07:39.079Z,30.39
2016-08-10T12:08:39.081Z,30.1
2016-08-10T12:09:39.093Z,29.61
2016-08-10T12:10:39.094Z,30.39
2016-08-10T12:11:39.101Z,30.1
2016-08-10T12:12:39.103Z,29.91
2016-08-10T12:13:39.109Z,30.29
2016-08-10T12:14:39.119Z,30.29
2016-08-10T12:15:39.122Z,30
2016-08-10T12:16:39.123Z,30.29
2016-08-10T12:17:39.131Z,30.39
2016-08-10T12:18:39.141Z,30.1
2016-08-10T12:19:39.156Z,30.2
2016-08-10T12:20:39.143Z,29.91
2016-08-10T12:21:39.152Z,30.29
2016-08-10T12:22:39.156Z,30.39
2016-08-10T12:23:39.162Z,30.2
2016-08-10T12:24:39.180Z,29.81
2016-08-10T12:25:39.172Z,29.81
2016-08-10T12:26:39.181Z,30.11
2016-08-10T12:27:39.183Z,30.31
2016-08-10T12:28:39.194Z,30.11
2016-08-10T12:29:39.210Z,30.02
2016-08-10T12:30:39.203Z,30.41
2016-08-10T12:31:39.203Z,30.31
2016-08-10T12:32:39.212Z,30.39
2016-08-10T12:33:39.215Z,30
2016-08-10T12:34:39.224Z,30.39
2016-08-10T12:35:39.227Z,30.49
2016-08-10T12:36:39.233Z,30.58
2016-08-10T12:37:39.742Z,30.58
2016-08-10T12:38:39.245Z,31.07
2016-08-10T12:39:40.253Z,30.58
2016-08-10T12:40:39.456Z,30.58
2016-08-10T12:41:39.564Z,30.88
2016-08-10T12:42:39.268Z,30.78
2016-08-10T12:43:39.266Z,30.96
2016-08-10T12:44:39.272Z,30.86
2016-08-10T12:45:39.279Z,30.96
2016-08-10T12:46:40.238Z,30.76
2016-08-10T12:47:39.286Z,31.15
2016-08-10T12:48:40.144Z,31.54
2016-08-10T12:49:39.299Z,31.52
2016-08-10T12:50:39.753Z,31.81
2016-08-10T12:51:39.406Z,32.2
2016-08-10T12:52:39.320Z,32.2
2016-08-10T12:53:39.318Z,32.47
2016-08-10T12:54:39.329Z,32.67
2016-08-10T12:55:39.330Z,33.14
2016-08-10T12:56:39.328Z,33.04
2016-08-10T12:57:39.336Z,33.23
2016-08-10T12:58:39.336Z,33.33
2016-08-10T12:59:40.861Z,33.33
2016-08-10T13:00:39.807Z,33.33
2016-08-10T13:01:40.284Z,33.22
2016-08-10T13:02:40.195Z,33.6
2016-08-10T13:03:39.356Z,33.89
2016-08-10T13:04:39.379Z,33.98
2016-08-10T13:05:39.368Z,34.38
2016-08-10T13:06:39.373Z,34.08
2016-08-10T13:07:41.251Z,34.28
2016-08-10T13:08:40.011Z,34.66
2016-08-10T13:09:39.388Z,34.18
2016-08-10T13:10:39.951Z,34.2
2016-08-10T13:11:40.330Z,34
2016-08-10T13:12:39.413Z,34.1
2016-08-10T13:13:39.405Z,34.68
2016-08-10T13:14:39.400Z,34.78
2016-08-10T13:15:39.405Z,34.68
2016-08-10T13:16:39.415Z,34.78
2016-08-10T13:17:39.419Z,34.87
2016-08-10T13:18:39.416Z,34.68
2016-08-10T13:19:39.418Z,34.78
2016-08-10T13:20:39.422Z,34.78
2016-08-10T13:21:39.433Z,34.86
2016-08-10T13:22:39.430Z,34.76